Terminal Aerodrome Forecast
Issued by NWS North Platte, NE

Home | Current Version | Previous Version | Text Only | Print | Product List | Glossary On
Versions: 1 2 3 4 5 6 7 8 9 10 11 12 13 14 15 16 17 18 19 20 21 22 23 24 25
000
FTUS43 KLBF 280500 AAA
TAFVTN
TAF AMD
KVTN 280558Z 2806/0106 16010KT P6SM OVC030
     FM281800 22010KT P6SM SCT050
     FM282100 25005KT P6SM SCT050
     FM010000 30005KT P6SM SKC=

USA.gov is the U.S. government's official web portal to all federal, state and local government web resources and services.